Flight Track Log - Related Links

Times and Time Zones

All times are in EDT time to prevent confusion due to time zone crossing. See the JIA2564 flight status page for this flight to view local times or setup timezone preferences in your user account.


Time Position Orientation Groundspeed Altitude Reporting Facility
EDT Latitude Longitude Course Direction KTS MPH feet Rate Location/Type
Thu 08:05:28 AM 30.5683 -91.0803 83° East 200 230 33,000  Level Houston Center
Thu 08:06:30 AM 30.5864 -91.0175 72° East 238 274 4,900 -12,000 Descending Houston Center
Thu 08:07:31 AM 30.6197 -90.9183 69° East 264 304 8,400 2,508 Climbing Houston Center
Thu 08:08:32 AM 30.6472 -90.8294 70° East 285 328 10,000 1,268 Climbing Houston Center
Thu 08:09:00 AM 30.7455 -90.4923 60° Northeast  Level FlightAware Approximate
Thu 08:09:34 AM 30.6819 -90.7306 68° East 324 373 11,000  Level Houston Center
Thu 08:10:00 AM 30.7600 -90.3835 83° East  Level FlightAware Approximate
Thu 08:10:35 AM 30.7192 -90.6292 67° East 340 391 13,700  Level Houston Center
Thu 08:11:36 AM 30.7581 -90.5306 65° Northeast 336 387 16,300 2,488 Climbing Houston Center
Thu 08:12:38 AM 30.7917 -90.4353 68° East 322 371 18,800 1,805 Climbing Houston Center
Thu 08:13:39 AM 30.8286 -90.3375 66° East 326 375 20,000 1,279 Climbing Houston Center
Thu 08:14:40 AM 30.8681 -90.2311 67° East 349 402 21,400 1,220 Climbing Houston Center
Thu 08:15:42 AM 30.9075 -90.1233 67° East 357 411 22,500 976 Climbing Houston Center
Thu 08:16:43 AM 30.9475 -90.0097 68° East 371 427 23,400 1,073 Climbing Houston Center
Thu 08:17:45 AM 30.9992 -89.8708 67° East 384 442 24,700 1,171 Climbing Houston Center
Thu 08:18:46 AM 31.0408 -89.7536 67° East 389 448 25,800 934 Climbing Houston Center
Thu 08:19:47 AM 31.0833 -89.6369 67° East 390 449 26,600 878 Climbing Houston Center
Thu 08:20:49 AM 31.1275 -89.5164 67° East 400 460 27,600 1,073 Climbing Houston Center
Thu 08:21:50 AM 31.1689 -89.4006 67° East 388 447 28,800 976 Climbing Houston Center
Thu 08:22:52 AM 31.2103 -89.2844 67° East 387 445 29,600 634 Climbing Houston Center
Thu 08:23:53 AM 31.2525 -89.1650 68° East 395 455 30,100 488 Climbing Houston Center
Thu 08:24:55 AM 31.2947 -89.0483 67° East 396 456 30,600 488 Climbing Houston Center
Thu 08:25:56 AM 31.3369 -88.9253 68° East 404 465 31,100 537 Climbing Houston Center
Thu 08:26:58 AM 31.3892 -88.7761 68° East 411 473 31,700 537 Climbing Houston Center
Thu 08:27:59 AM 31.4339 -88.6503 67° East 416 479 32,200 537 Climbing Houston Center
Thu 08:29:01 AM 31.4783 -88.5239 68° East 417 480 32,800 390 Climbing Houston Center
Thu 08:30:02 AM 31.5228 -88.3967 68° East 418 481 33,000 143 Climbing Houston Center
Thu 08:30:25 AM 31.5422 -88.3442 66° East 412 474 33,000  Level Atlanta Center
Thu 08:31:25 AM 31.5886 -88.2122 68° East 423 487 33,000 150 Level Atlanta Center
Thu 08:32:25 AM 31.6347 -88.0803 68° East 429 494 33,300 400 Climbing Atlanta Center
Thu 08:33:25 AM 31.6806 -87.9506 67° East 429 494 33,800 500 Climbing Atlanta Center
Thu 08:34:25 AM 31.7242 -87.8183 69° East 429 494 34,300 500 Climbing Atlanta Center
Thu 08:35:25 AM 31.7700 -87.6908 67° East 429 494 34,800 350 Climbing Atlanta Center
Thu 08:36:25 AM 31.8133 -87.5606 69° East 429 494 35,000 100 Climbing Atlanta Center
Thu 08:37:25 AM 31.8586 -87.4303 68° East 429 494 35,000  Level Atlanta Center
Thu 08:38:25 AM 31.8956 -87.3069 71° East 429 494 35,000  Level Atlanta Center
Thu 08:39:25 AM 31.9406 -87.1739 68° East 429 494 35,000  Level Atlanta Center
Thu 08:40:25 AM 31.9836 -87.0433 69° East 429 494 35,000  Level Atlanta Center
Thu 08:41:25 AM 32.0283 -86.9100 68° East 429 494 35,000  Level Atlanta Center
Thu 08:42:25 AM 32.0711 -86.7792 69° East 423 487 35,000  Level Atlanta Center
Thu 08:43:25 AM 32.1200 -86.6431 67° East 423 487 35,000  Level Atlanta Center
Thu 08:44:25 AM 32.1600 -86.5169 69° East 418 481 35,000  Level Atlanta Center
Thu 08:45:25 AM 32.1956 -86.4147 68° East 412 474 35,000  Level Atlanta Center
Thu 08:46:25 AM 32.2608 -86.2692 62° Northeast 406 467 35,000  Level Atlanta Center
Thu 08:47:25 AM 32.3336 -86.1678 50° Northeast 412 474 35,000  Level Atlanta Center
Thu 08:48:25 AM 32.4189 -86.0639 46° Northeast 417 480 35,000  Level Atlanta Center
Thu 08:49:25 AM 32.4936 -85.9597 50° Northeast 417 480 35,000  Level Atlanta Center
Thu 08:50:25 AM 32.5725 -85.8531 49° Northeast 427 491 35,000  Level Atlanta Center
Thu 08:51:25 AM 32.6511 -85.7461 49° Northeast 427 491 35,000  Level Atlanta Center
Thu 08:52:25 AM 32.7297 -85.6389 49° Northeast 427 491 35,000  Level Atlanta Center
Thu 08:53:25 AM 32.8083 -85.5317 49° Northeast 427 491 35,000  Level Atlanta Center
Thu 08:54:25 AM 32.8869 -85.4242 49° Northeast 427 491 35,000  Level Atlanta Center
Thu 08:55:25 AM 32.9672 -85.3139 49° Northeast 427 491 35,000  Level Atlanta Center
Thu 08:56:25 AM 33.0456 -85.2086 48° Northeast 427 491 35,000  Level Atlanta Center
Thu 08:57:25 AM 33.1281 -85.1006 48° Northeast 427 491 35,000  Level Atlanta Center
Thu 08:58:25 AM 33.2083 -84.9947 48° Northeast 432 497 35,000  Level Atlanta Center
Thu 08:59:25 AM 33.2861 -84.8886 49° Northeast 432 497 35,000  Level Atlanta Center
Thu 09:00:25 AM 33.3578 -84.7972 47° Northeast 427 491 35,000  Level Atlanta Center
Thu 09:01:25 AM 33.4397 -84.6886 48° Northeast 419 482 35,000 -450 Level Atlanta Center
Thu 09:02:25 AM 33.5175 -84.5844 48° Northeast 419 482 34,100 -1,000 Descending Atlanta Center
Thu 09:03:25 AM 33.6014 -84.4653 50° Northeast 419 482 33,000 -1,000 Descending Atlanta Center
Thu 09:04:25 AM 33.6561 -84.3358 63° Northeast 419 482 32,100 -950 Descending Atlanta Center
Thu 09:05:25 AM 33.6939 -84.1986 72° East 419 482 31,100 -550 Descending Atlanta Center
Thu 09:06:25 AM 33.7317 -84.0664 71° East 419 482 31,000 -50 Descending Atlanta Center
Thu 09:07:25 AM 33.7669 -83.9339 72° East 414 476 31,000  Level Atlanta Center
Thu 09:08:25 AM 33.8106 -83.7939 69° East 426 490 31,000  Level Atlanta Center
Thu 09:09:25 AM 33.8458 -83.6536 73° East 431 496 31,000 -350 Level Atlanta Center
Thu 09:10:25 AM 33.8869 -83.5183 70° East 436 502 30,300 -850 Descending Atlanta Center
Thu 09:11:25 AM 33.9219 -83.3881 72° East 425 489 29,300 -650 Descending Atlanta Center
Thu 09:12:25 AM 33.9608 -83.2622 70° East 404 465 29,000 -150 Descending Atlanta Center
Thu 09:13:25 AM 34.0164 -83.1467 60° Northeast 398 458 29,000 -50 Level Atlanta Center
Thu 09:14:25 AM 34.0739 -83.0206 61° Northeast 403 464 28,900 -650 Descending Atlanta Center
Thu 09:15:25 AM 34.1292 -82.8944 62° Northeast 413 475 27,700 -1,400 Descending Atlanta Center
Thu 09:16:25 AM 34.1844 -82.7781 60° Northeast 413 475 26,100 -1,550 Descending Atlanta Center
Thu 09:17:25 AM 34.2353 -82.6644 62° Northeast 394 453 24,600 -1,050 Descending Atlanta Center
Thu 09:18:25 AM 34.2861 -82.5506 62° Northeast 389 448 24,000 -300 Descending Atlanta Center
Thu 09:19:25 AM 34.3369 -82.4389 61° Northeast 384 442 24,000 -50 Level Atlanta Center
Thu 09:20:25 AM 34.3897 -82.3244 61° Northeast 379 436 23,900 -950 Descending Atlanta Center
Thu 09:21:25 AM 34.4381 -82.2153 62° Northeast 379 436 22,100 -1,800 Descending Atlanta Center
Thu 09:22:25 AM 34.4825 -82.1161 61° Northeast 358 412 20,300 -1,750 Descending Atlanta Center
Thu 09:23:25 AM 34.5228 -82.0194 63° Northeast 334 384 18,600 -1,600 Descending Atlanta Center
Thu 09:24:25 AM 34.5650 -81.9225 62° Northeast 323 372 17,100 -1,650 Descending Atlanta Center
Thu 09:25:25 AM 34.6069 -81.8281 62° Northeast 323 372 15,300 -1,650 Descending Atlanta Center
Thu 09:26:25 AM 34.6372 -81.7592 62° Northeast 314 361 13,800 -1,750 Descending Atlanta Center
Thu 09:27:25 AM 34.6792 -81.6669 61° Northeast 289 333 11,800 -1,806 Descending Atlanta Center
Thu 09:27:58 AM 34.7031 -81.6083 64° Northeast 288 331 11,000 -800 Descending Atlanta Center
Thu 09:28:25 AM 34.7150 -81.5775 65° Northeast 282 325 11,000  Level Atlanta Center
Thu 09:28:59 AM 34.7453 -81.5286 53° Northeast 286 329 11,000  Level Atlanta Center
Thu 09:29:25 AM 34.7658 -81.5053 43° Northeast 287 330 11,000 -98 Level Atlanta Center
Thu 09:30:00 AM 34.8000 -81.4536 51° Northeast 293 337 10,900 -500 Descending Atlanta Center
Thu 09:30:25 AM 34.8100 -81.4228 68° East 282 325 10,500 -1,377 Descending Atlanta Center
Thu 09:31:01 AM 34.8108 -81.3672 89° East 261 300 9,500 -1,500 Descending Atlanta Center
Thu 09:31:25 AM 34.8081 -81.3344 96° East 250 288 9,000 -1,527 Descending Atlanta Center
Thu 09:31:56 AM 34.8006 -81.2867 101° East 255 293 8,100 -1,600 Descending Atlanta Center
Thu 09:32:25 AM 34.7933 -81.2439 102° East 250 288 7,400 -1,000 Descending Atlanta Center
Thu 09:33:02 AM 34.8025 -81.1878 79° East 246 283 7,000 -500 Descending Atlanta Center
Thu 09:33:25 AM 34.8061 -81.1650 79° East 244 281 6,900  Descending Atlanta Center
Thu 09:33:57 AM 34.8117 -81.1269 80° East 206 237 7,000  Climbing Atlanta Center
Thu 09:34:25 AM 34.8192 -81.0936 75° East 222 255 6,900 -806 Descending Atlanta Center
Thu 09:35:04 AM 34.8286 -81.0531 74° East 208 239 6,100 -1,300 Descending Atlanta Center
Thu 09:35:25 AM 34.8469 -81.0369 36° Northeast 197 227 5,600 -1,377 Descending Atlanta Center
Thu 09:36:05 AM 34.8797 -81.0131 31° Northeast 220 253 4,700 -1,300 Descending Atlanta Center
Thu 09:36:25 AM 34.8961 -80.9972 38° Northeast 197 227 4,300 -627 Descending Atlanta Center
Thu 09:37:12 AM 34.9372 -80.9731 26° Northeast 211 243 4,000 -167 Descending Atlanta Center
Thu 09:38:13 AM 34.9953 -80.9581 12° North 214 246 4,000 -148 Level Atlanta Center
Thu 09:39:14 AM 35.0494 -80.9536 North 195 224 3,700 -295 Descending Atlanta Center

Login

Don't have an account? Register now (free) for customized features, flight alerts, and more!